sensor_id;sensor_type;location;lat;lon;timestamp;temperature;humidity
68719;DHT22;55696;52.138;5.444;2023-08-08T00:01:10;18.10;67.90
68719;DHT22;55696;52.138;5.444;2023-08-08T00:03:38;18.30;68.10
68719;DHT22;55696;52.138;5.444;2023-08-08T00:06:05;18.20;68.10
68719;DHT22;55696;52.138;5.444;2023-08-08T00:08:32;18.30;68.20
68719;DHT22;55696;52.138;5.444;2023-08-08T00:10:59;18.60;68.40
68719;DHT22;55696;52.138;5.444;2023-08-08T00:13:25;18.30;68.20
68719;DHT22;55696;52.138;5.444;2023-08-08T00:15:52;18.30;68.40
68719;DHT22;55696;52.138;5.444;2023-08-08T00:18:19;18.30;69.40
68719;DHT22;55696;52.138;5.444;2023-08-08T00:20:46;18.30;68.40
68719;DHT22;55696;52.138;5.444;2023-08-08T00:23:13;18.30;68.40
68719;DHT22;55696;52.138;5.444;2023-08-08T00:25:40;19.30;69.00
68719;DHT22;55696;52.138;5.444;2023-08-08T00:28:06;18.20;68.40
68719;DHT22;55696;52.138;5.444;2023-08-08T00:30:33;18.30;68.50
68719;DHT22;55696;52.138;5.444;2023-08-08T00:33:03;18.40;68.70
68719;DHT22;55696;52.138;5.444;2023-08-08T00:35:30;18.40;68.70
68719;DHT22;55696;52.138;5.444;2023-08-08T00:37:57;18.40;68.80
68719;DHT22;55696;52.138;5.444;2023-08-08T00:40:24;18.30;68.70
68719;DHT22;55696;52.138;5.444;2023-08-08T00:42:51;18.40;68.80
68719;DHT22;55696;52.138;5.444;2023-08-08T00:45:18;18.30;68.80
68719;DHT22;55696;52.138;5.444;2023-08-08T00:47:45;18.40;68.90
68719;DHT22;55696;52.138;5.444;2023-08-08T00:50:13;18.40;68.90
68719;DHT22;55696;52.138;5.444;2023-08-08T00:52:41;18.30;69.20
68719;DHT22;55696;52.138;5.444;2023-08-08T00:55:09;18.30;69.30
68719;DHT22;55696;52.138;5.444;2023-08-08T00:57:37;18.40;69.10
68719;DHT22;55696;52.138;5.444;2023-08-08T01:00:06;18.60;69.20
68719;DHT22;55696;52.138;5.444;2023-08-08T01:02:34;18.40;69.50
68719;DHT22;55696;52.138;5.444;2023-08-08T01:05:02;18.40;69.10
68719;DHT22;55696;52.138;5.444;2023-08-08T01:10:15;18.50;70.00
68719;DHT22;55696;52.138;5.444;2023-08-08T01:12:50;18.50;70.00
68719;DHT22;55696;52.138;5.444;2023-08-08T01:15:18;18.60;70.00
68719;DHT22;55696;52.138;5.444;2023-08-08T01:17:46;18.50;69.30
68719;DHT22;55696;52.138;5.444;2023-08-08T01:20:15;19.40;69.80
68719;DHT22;55696;52.138;5.444;2023-08-08T01:23:24;18.60;69.50
68719;DHT22;55696;52.138;5.444;2023-08-08T01:25:54;18.60;69.90
68719;DHT22;55696;52.138;5.444;2023-08-08T01:28:22;18.60;69.20
68719;DHT22;55696;52.138;5.444;2023-08-08T01:30:50;18.50;69.20
68719;DHT22;55696;52.138;5.444;2023-08-08T01:33:17;18.40;69.20
68719;DHT22;55696;52.138;5.444;2023-08-08T01:35:47;18.40;69.30
68719;DHT22;55696;52.138;5.444;2023-08-08T01:38:24;18.60;69.80
68719;DHT22;55696;52.138;5.444;2023-08-08T01:40:55;18.60;70.10
68719;DHT22;55696;52.138;5.444;2023-08-08T01:43:25;18.60;69.80
68719;DHT22;55696;52.138;5.444;2023-08-08T01:45:53;18.60;69.60
68719;DHT22;55696;52.138;5.444;2023-08-08T01:48:20;18.50;69.60
68719;DHT22;55696;52.138;5.444;2023-08-08T01:50:48;18.50;69.50
68719;DHT22;55696;52.138;5.444;2023-08-08T01:53:15;18.50;69.50
68719;DHT22;55696;52.138;5.444;2023-08-08T01:55:42;18.50;69.60
68719;DHT22;55696;52.138;5.444;2023-08-08T01:58:09;18.50;69.70
68719;DHT22;55696;52.138;5.444;2023-08-08T02:00:36;18.60;69.60
68719;DHT22;55696;52.138;5.444;2023-08-08T02:03:03;18.40;69.60
68719;DHT22;55696;52.138;5.444;2023-08-08T02:05:30;18.50;69.70
68719;DHT22;55696;52.138;5.444;2023-08-08T02:07:57;18.40;69.60
68719;DHT22;55696;52.138;5.444;2023-08-08T02:10:24;18.50;69.80
68719;DHT22;55696;52.138;5.444;2023-08-08T02:12:51;18.50;69.90
68719;DHT22;55696;52.138;5.444;2023-08-08T02:15:18;18.40;69.80
68719;DHT22;55696;52.138;5.444;2023-08-08T02:17:45;18.40;70.00
68719;DHT22;55696;52.138;5.444;2023-08-08T02:20:12;18.40;70.00
68719;DHT22;55696;52.138;5.444;2023-08-08T02:22:39;18.50;70.00
68719;DHT22;55696;52.138;5.444;2023-08-08T02:25:06;18.30;70.00
68719;DHT22;55696;52.138;5.444;2023-08-08T02:27:33;18.50;70.20
68719;DHT22;55696;52.138;5.444;2023-08-08T02:30:00;18.50;70.10
68719;DHT22;55696;52.138;5.444;2023-08-08T02:32:27;18.40;70.00
68719;DHT22;55696;52.138;5.444;2023-08-08T02:34:54;18.40;70.00
68719;DHT22;55696;52.138;5.444;2023-08-08T02:37:21;18.40;70.00
68719;DHT22;55696;52.138;5.444;2023-08-08T02:39:48;18.50;70.10
68719;DHT22;55696;52.138;5.444;2023-08-08T02:42:15;18.40;70.10
68719;DHT22;55696;52.138;5.444;2023-08-08T02:44:42;18.50;70.10
68719;DHT22;55696;52.138;5.444;2023-08-08T02:47:09;18.50;70.20
68719;DHT22;55696;52.138;5.444;2023-08-08T02:49:36;18.40;70.00
68719;DHT22;55696;52.138;5.444;2023-08-08T02:52:03;18.40;70.00
68719;DHT22;55696;52.138;5.444;2023-08-08T02:54:33;18.40;70.20
68719;DHT22;55696;52.138;5.444;2023-08-08T02:57:00;18.30;70.10
68719;DHT22;55696;52.138;5.444;2023-08-08T02:59:28;18.30;70.30
68719;DHT22;55696;52.138;5.444;2023-08-08T03:01:55;18.40;70.30
68719;DHT22;55696;52.138;5.444;2023-08-08T03:04:22;18.30;70.30
68719;DHT22;55696;52.138;5.444;2023-08-08T03:06:49;18.30;70.30
68719;DHT22;55696;52.138;5.444;2023-08-08T03:09:16;18.30;70.40
68719;DHT22;55696;52.138;5.444;2023-08-08T03:11:43;18.30;70.40
68719;DHT22;55696;52.138;5.444;2023-08-08T03:14:13;18.30;70.40
68719;DHT22;55696;52.138;5.444;2023-08-08T03:16:40;18.30;70.40
68719;DHT22;55696;52.138;5.444;2023-08-08T03:19:08;18.10;70.30
68719;DHT22;55696;52.138;5.444;2023-08-08T03:21:36;18.20;70.40
68719;DHT22;55696;52.138;5.444;2023-08-08T03:24:04;18.30;70.40
68719;DHT22;55696;52.138;5.444;2023-08-08T03:26:31;18.40;70.50
68719;DHT22;55696;52.138;5.444;2023-08-08T03:28:58;18.40;70.40
68719;DHT22;55696;52.138;5.444;2023-08-08T03:31:31;18.40;70.30
68719;DHT22;55696;52.138;5.444;2023-08-08T03:34:02;18.40;70.30
68719;DHT22;55696;52.138;5.444;2023-08-08T03:36:30;18.30;70.30
68719;DHT22;55696;52.138;5.444;2023-08-08T03:38:57;18.30;70.40
68719;DHT22;55696;52.138;5.444;2023-08-08T03:41:24;18.40;70.40
68719;DHT22;55696;52.138;5.444;2023-08-08T03:43:51;18.40;70.30
68719;DHT22;55696;52.138;5.444;2023-08-08T03:46:18;18.30;70.20
68719;DHT22;55696;52.138;5.444;2023-08-08T03:48:45;18.30;70.30
68719;DHT22;55696;52.138;5.444;2023-08-08T03:51:12;18.30;70.30
68719;DHT22;55696;52.138;5.444;2023-08-08T03:53:39;18.30;70.20
68719;DHT22;55696;52.138;5.444;2023-08-08T03:56:06;18.20;70.40
68719;DHT22;55696;52.138;5.444;2023-08-08T03:58:34;18.20;70.40
68719;DHT22;55696;52.138;5.444;2023-08-08T04:01:00;18.10;70.30
68719;DHT22;55696;52.138;5.444;2023-08-08T04:03:27;18.20;70.50
68719;DHT22;55696;52.138;5.444;2023-08-08T04:05:55;18.10;70.30
68719;DHT22;55696;52.138;5.444;2023-08-08T04:08:22;18.30;70.40
68719;DHT22;55696;52.138;5.444;2023-08-08T04:10:49;18.10;70.30
68719;DHT22;55696;52.138;5.444;2023-08-08T04:13:16;18.10;70.40
68719;DHT22;55696;52.138;5.444;2023-08-08T04:15:43;18.10;70.40
68719;DHT22;55696;52.138;5.444;2023-08-08T04:18:10;17.90;70.30
68719;DHT22;55696;52.138;5.444;2023-08-08T04:20:37;18.00;70.40
68719;DHT22;55696;52.138;5.444;2023-08-08T04:23:04;18.00;70.40
68719;DHT22;55696;52.138;5.444;2023-08-08T04:25:31;17.90;70.20
68719;DHT22;55696;52.138;5.444;2023-08-08T04:27:58;17.90;70.20
68719;DHT22;55696;52.138;5.444;2023-08-08T04:30:25;18.00;70.30
68719;DHT22;55696;52.138;5.444;2023-08-08T04:32:51;17.80;70.20
68719;DHT22;55696;52.138;5.444;2023-08-08T04:35:18;17.70;70.30
68719;DHT22;55696;52.138;5.444;2023-08-08T04:37:45;17.80;70.50
68719;DHT22;55696;52.138;5.444;2023-08-08T04:40:12;17.70;70.50
68719;DHT22;55696;52.138;5.444;2023-08-08T04:42:40;17.90;70.50
68719;DHT22;55696;52.138;5.444;2023-08-08T04:45:07;17.90;70.60
68719;DHT22;55696;52.138;5.444;2023-08-08T04:47:34;18.00;70.30
68719;DHT22;55696;52.138;5.444;2023-08-08T04:50:01;18.00;70.20
68719;DHT22;55696;52.138;5.444;2023-08-08T04:52:28;18.70;70.50
68719;DHT22;55696;52.138;5.444;2023-08-08T04:54:54;18.00;69.90
68719;DHT22;55696;52.138;5.444;2023-08-08T04:57:21;18.00;69.80
68719;DHT22;55696;52.138;5.444;2023-08-08T04:59:48;17.80;69.50
68719;DHT22;55696;52.138;5.444;2023-08-08T05:02:15;18.20;69.70
68719;DHT22;55696;52.138;5.444;2023-08-08T05:04:43;17.90;69.50
68719;DHT22;55696;52.138;5.444;2023-08-08T05:07:10;17.70;69.50
68719;DHT22;55696;52.138;5.444;2023-08-08T05:09:36;17.90;69.60
68719;DHT22;55696;52.138;5.444;2023-08-08T05:12:04;17.90;69.60
68719;DHT22;55696;52.138;5.444;2023-08-08T05:14:32;17.90;69.70
68719;DHT22;55696;52.138;5.444;2023-08-08T05:17:01;17.70;69.50
68719;DHT22;55696;52.138;5.444;2023-08-08T05:19:28;17.80;69.60
68719;DHT22;55696;52.138;5.444;2023-08-08T05:21:54;17.80;69.40
68719;DHT22;55696;52.138;5.444;2023-08-08T05:24:21;17.90;69.40
68719;DHT22;55696;52.138;5.444;2023-08-08T05:26:48;17.70;69.10
68719;DHT22;55696;52.138;5.444;2023-08-08T05:29:15;17.90;69.10
68719;DHT22;55696;52.138;5.444;2023-08-08T05:31:42;17.90;69.10
68719;DHT22;55696;52.138;5.444;2023-08-08T05:34:08;18.00;69.30
68719;DHT22;55696;52.138;5.444;2023-08-08T05:36:35;17.90;69.30
68719;DHT22;55696;52.138;5.444;2023-08-08T05:39:02;17.90;69.20
68719;DHT22;55696;52.138;5.444;2023-08-08T05:41:29;17.90;69.30
68719;DHT22;55696;52.138;5.444;2023-08-08T05:43:56;17.80;69.10
68719;DHT22;55696;52.138;5.444;2023-08-08T05:46:23;17.80;69.20
68719;DHT22;55696;52.138;5.444;2023-08-08T05:48:50;17.90;69.20
68719;DHT22;55696;52.138;5.444;2023-08-08T05:51:17;17.90;69.20
68719;DHT22;55696;52.138;5.444;2023-08-08T05:53:43;17.80;69.00
68719;DHT22;55696;52.138;5.444;2023-08-08T05:56:11;17.80;68.90
68719;DHT22;55696;52.138;5.444;2023-08-08T05:58:37;17.90;68.90
68719;DHT22;55696;52.138;5.444;2023-08-08T06:01:04;18.00;68.80
68719;DHT22;55696;52.138;5.444;2023-08-08T06:03:35;18.00;68.60
68719;DHT22;55696;52.138;5.444;2023-08-08T06:06:05;18.20;68.50
68719;DHT22;55696;52.138;5.444;2023-08-08T06:08:32;19.20;69.60
68719;DHT22;55696;52.138;5.444;2023-08-08T06:10:59;18.30;68.00
68719;DHT22;55696;52.138;5.444;2023-08-08T06:13:26;18.00;67.60
68719;DHT22;55696;52.138;5.444;2023-08-08T06:15:53;18.40;67.60
68719;DHT22;55696;52.138;5.444;2023-08-08T06:18:20;19.10;67.60
68719;DHT22;55696;52.138;5.444;2023-08-08T06:20:47;18.40;66.90
68719;DHT22;55696;52.138;5.444;2023-08-08T06:23:13;18.50;66.50
68719;DHT22;55696;52.138;5.444;2023-08-08T06:25:41;18.50;66.00
68719;DHT22;55696;52.138;5.444;2023-08-08T06:28:09;18.50;65.80
68719;DHT22;55696;52.138;5.444;2023-08-08T06:30:36;18.70;65.60
68719;DHT22;55696;52.138;5.444;2023-08-08T06:33:02;18.70;65.00
68719;DHT22;55696;52.138;5.444;2023-08-08T06:35:30;18.80;64.80
68719;DHT22;55696;52.138;5.444;2023-08-08T06:37:56;18.70;64.50
68719;DHT22;55696;52.138;5.444;2023-08-08T06:40:23;19.00;64.30
68719;DHT22;55696;52.138;5.444;2023-08-08T06:42:50;19.00;64.00
68719;DHT22;55696;52.138;5.444;2023-08-08T06:45:17;19.10;63.90
68719;DHT22;55696;52.138;5.444;2023-08-08T06:47:44;19.10;63.70
68719;DHT22;55696;52.138;5.444;2023-08-08T06:50:12;19.10;63.30
68719;DHT22;55696;52.138;5.444;2023-08-08T06:52:39;19.20;63.00
68719;DHT22;55696;52.138;5.444;2023-08-08T06:55:06;19.30;62.80
68719;DHT22;55696;52.138;5.444;2023-08-08T06:57:34;19.30;62.30
68719;DHT22;55696;52.138;5.444;2023-08-08T07:00:02;19.10;61.80
68719;DHT22;55696;52.138;5.444;2023-08-08T07:02:32;19.30;61.40
68719;DHT22;55696;52.138;5.444;2023-08-08T07:04:58;19.20;61.20
68719;DHT22;55696;52.138;5.444;2023-08-08T07:07:25;19.40;61.10
68719;DHT22;55696;52.138;5.444;2023-08-08T07:09:52;19.20;60.30
68719;DHT22;55696;52.138;5.444;2023-08-08T07:12:19;19.20;60.00
68719;DHT22;55696;52.138;5.444;2023-08-08T07:14:46;19.40;59.90
68719;DHT22;55696;52.138;5.444;2023-08-08T07:17:13;19.50;59.70
68719;DHT22;55696;52.138;5.444;2023-08-08T07:19:41;19.60;59.50
68719;DHT22;55696;52.138;5.444;2023-08-08T07:22:08;19.60;58.80
68719;DHT22;55696;52.138;5.444;2023-08-08T07:24:35;19.60;58.60
68719;DHT22;55696;52.138;5.444;2023-08-08T07:27:02;19.60;58.50
68719;DHT22;55696;52.138;5.444;2023-08-08T07:29:28;19.80;59.20
68719;DHT22;55696;52.138;5.444;2023-08-08T07:31:57;19.70;57.90
68719;DHT22;55696;52.138;5.444;2023-08-08T07:34:25;19.70;57.60
68719;DHT22;55696;52.138;5.444;2023-08-08T07:36:51;19.80;57.40
68719;DHT22;55696;52.138;5.444;2023-08-08T07:39:18;19.90;57.40
68719;DHT22;55696;52.138;5.444;2023-08-08T07:41:45;19.90;57.30
68719;DHT22;55696;52.138;5.444;2023-08-08T07:44:12;19.90;56.50
68719;DHT22;55696;52.138;5.444;2023-08-08T07:46:39;19.90;55.90
68719;DHT22;55696;52.138;5.444;2023-08-08T07:49:05;20.00;56.00
68719;DHT22;55696;52.138;5.444;2023-08-08T07:51:33;20.00;55.90
68719;DHT22;55696;52.138;5.444;2023-08-08T07:53:59;20.00;55.30
68719;DHT22;55696;52.138;5.444;2023-08-08T07:56:27;20.10;55.00
68719;DHT22;55696;52.138;5.444;2023-08-08T07:58:54;20.00;54.60
68719;DHT22;55696;52.138;5.444;2023-08-08T08:01:21;20.20;54.70
68719;DHT22;55696;52.138;5.444;2023-08-08T08:03:48;20.30;54.50
68719;DHT22;55696;52.138;5.444;2023-08-08T08:06:15;20.50;53.80
68719;DHT22;55696;52.138;5.444;2023-08-08T08:08:42;20.60;53.60
68719;DHT22;55696;52.138;5.444;2023-08-08T08:11:09;20.60;53.30
68719;DHT22;55696;52.138;5.444;2023-08-08T08:13:36;20.70;52.70
68719;DHT22;55696;52.138;5.444;2023-08-08T08:16:02;20.90;51.90
68719;DHT22;55696;52.138;5.444;2023-08-08T08:18:30;20.70;51.70
68719;DHT22;55696;52.138;5.444;2023-08-08T08:20:57;20.80;52.00
68719;DHT22;55696;52.138;5.444;2023-08-08T08:23:24;20.80;51.70
68719;DHT22;55696;52.138;5.444;2023-08-08T08:25:51;20.90;51.60
68719;DHT22;55696;52.138;5.444;2023-08-08T08:28:18;20.70;51.30
68719;DHT22;55696;52.138;5.444;2023-08-08T08:30:45;20.80;51.40
68719;DHT22;55696;52.138;5.444;2023-08-08T08:33:12;20.90;51.30
68719;DHT22;55696;52.138;5.444;2023-08-08T08:35:39;20.90;51.50
68719;DHT22;55696;52.138;5.444;2023-08-08T08:38:05;20.90;51.30
68719;DHT22;55696;52.138;5.444;2023-08-08T08:40:37;20.80;50.70
68719;DHT22;55696;52.138;5.444;2023-08-08T08:43:04;20.90;51.40
68719;DHT22;55696;52.138;5.444;2023-08-08T08:45:32;20.90;51.00
68719;DHT22;55696;52.138;5.444;2023-08-08T08:48:00;20.90;50.80
68719;DHT22;55696;52.138;5.444;2023-08-08T08:50:30;21.70;50.90
68719;DHT22;55696;52.138;5.444;2023-08-08T08:53:00;21.10;50.30
68719;DHT22;55696;52.138;5.444;2023-08-08T08:55:27;21.00;50.00
68719;DHT22;55696;52.138;5.444;2023-08-08T08:57:54;21.20;49.80
68719;DHT22;55696;52.138;5.444;2023-08-08T09:00:21;21.20;49.80
68719;DHT22;55696;52.138;5.444;2023-08-08T09:02:49;21.20;49.60
68719;DHT22;55696;52.138;5.444;2023-08-08T09:05:18;21.30;49.70
68719;DHT22;55696;52.138;5.444;2023-08-08T09:07:48;21.30;49.30
68719;DHT22;55696;52.138;5.444;2023-08-08T09:10:16;22.00;50.20
68719;DHT22;55696;52.138;5.444;2023-08-08T09:12:44;21.90;48.80
68719;DHT22;55696;52.138;5.444;2023-08-08T09:15:13;21.40;49.40
68719;DHT22;55696;52.138;5.444;2023-08-08T09:17:43;21.40;48.40
68719;DHT22;55696;52.138;5.444;2023-08-08T09:20:15;21.30;48.30
68719;DHT22;55696;52.138;5.444;2023-08-08T09:22:43;21.40;48.40
68719;DHT22;55696;52.138;5.444;2023-08-08T09:25:10;21.40;48.50
68719;DHT22;55696;52.138;5.444;2023-08-08T09:27:37;21.30;48.40
68719;DHT22;55696;52.138;5.444;2023-08-08T09:30:04;21.10;48.20
68719;DHT22;55696;52.138;5.444;2023-08-08T09:32:31;21.20;47.90
68719;DHT22;55696;52.138;5.444;2023-08-08T09:34:59;21.70;48.40
68719;DHT22;55696;52.138;5.444;2023-08-08T09:37:27;21.10;48.10
68719;DHT22;55696;52.138;5.444;2023-08-08T09:39:58;21.20;48.30
68719;DHT22;55696;52.138;5.444;2023-08-08T09:42:27;21.30;48.80
68719;DHT22;55696;52.138;5.444;2023-08-08T09:44:56;21.30;48.20
68719;DHT22;55696;52.138;5.444;2023-08-08T09:47:23;21.50;48.10
68719;DHT22;55696;52.138;5.444;2023-08-08T09:49:51;21.90;47.40
68719;DHT22;55696;52.138;5.444;2023-08-08T09:52:18;21.70;46.50
68719;DHT22;55696;52.138;5.444;2023-08-08T09:54:47;21.90;46.80
68719;DHT22;55696;52.138;5.444;2023-08-08T09:57:15;22.00;46.30
68719;DHT22;55696;52.138;5.444;2023-08-08T09:59:43;22.00;46.10
68719;DHT22;55696;52.138;5.444;2023-08-08T10:02:13;22.00;46.30
68719;DHT22;55696;52.138;5.444;2023-08-08T10:04:41;21.80;46.70
68719;DHT22;55696;52.138;5.444;2023-08-08T10:07:08;21.80;47.10
68719;DHT22;55696;52.138;5.444;2023-08-08T10:09:35;21.70;47.20
68719;DHT22;55696;52.138;5.444;2023-08-08T10:12:07;21.60;47.40
68719;DHT22;55696;52.138;5.444;2023-08-08T10:14:36;21.60;47.80
68719;DHT22;55696;52.138;5.444;2023-08-08T10:17:05;21.70;47.30
68719;DHT22;55696;52.138;5.444;2023-08-08T10:19:33;21.60;46.60
68719;DHT22;55696;52.138;5.444;2023-08-08T10:22:04;21.70;46.60
68719;DHT22;55696;52.138;5.444;2023-08-08T10:24:35;21.80;48.00
68719;DHT22;55696;52.138;5.444;2023-08-08T10:27:03;22.60;47.10
68719;DHT22;55696;52.138;5.444;2023-08-08T10:29:32;22.20;46.50
68719;DHT22;55696;52.138;5.444;2023-08-08T10:32:00;22.10;46.10
68719;DHT22;55696;52.138;5.444;2023-08-08T10:34:42;22.20;45.90
68719;DHT22;55696;52.138;5.444;2023-08-08T10:37:16;22.10;45.90
68719;DHT22;55696;52.138;5.444;2023-08-08T10:40:00;22.10;45.90
68719;DHT22;55696;52.138;5.444;2023-08-08T10:42:28;22.10;45.60
68719;DHT22;55696;52.138;5.444;2023-08-08T10:44:57;22.20;45.60
68719;DHT22;55696;52.138;5.444;2023-08-08T10:47:34;22.40;45.60
68719;DHT22;55696;52.138;5.444;2023-08-08T10:50:12;22.40;45.40
68719;DHT22;55696;52.138;5.444;2023-08-08T10:57:57;23.20;45.60
68719;DHT22;55696;52.138;5.444;2023-08-08T11:00:27;22.80;45.30
68719;DHT22;55696;52.138;5.444;2023-08-08T11:02:57;22.80;44.70
68719;DHT22;55696;52.138;5.444;2023-08-08T11:05:25;23.50;44.60
68719;DHT22;55696;52.138;5.444;2023-08-08T11:07:53;22.80;44.00
68719;DHT22;55696;52.138;5.444;2023-08-08T11:10:21;22.70;43.60
68719;DHT22;55696;52.138;5.444;2023-08-08T11:12:57;23.40;43.90
68719;DHT22;55696;52.138;5.444;2023-08-08T11:15:24;22.80;43.40
68719;DHT22;55696;52.138;5.444;2023-08-08T11:17:51;23.00;43.30
68719;DHT22;55696;52.138;5.444;2023-08-08T11:20:19;22.80;43.40
68719;DHT22;55696;52.138;5.444;2023-08-08T11:22:56;22.60;43.40
68719;DHT22;55696;52.138;5.444;2023-08-08T11:25:28;22.90;43.50
68719;DHT22;55696;52.138;5.444;2023-08-08T11:27:56;23.00;43.70
68719;DHT22;55696;52.138;5.444;2023-08-08T11:30:26;23.10;43.90
68719;DHT22;55696;52.138;5.444;2023-08-08T11:32:54;23.80;43.70
68719;DHT22;55696;52.138;5.444;2023-08-08T11:35:25;23.10;42.90
68719;DHT22;55696;52.138;5.444;2023-08-08T11:37:58;22.90;43.10
68719;DHT22;55696;52.138;5.444;2023-08-08T11:40:27;22.70;43.50
68719;DHT22;55696;52.138;5.444;2023-08-08T11:42:55;22.80;44.00
68719;DHT22;55696;52.138;5.444;2023-08-08T11:45:23;23.20;43.90
68719;DHT22;55696;52.138;5.444;2023-08-08T11:47:53;22.80;43.30
68719;DHT22;55696;52.138;5.444;2023-08-08T11:50:22;23.00;43.30
68719;DHT22;55696;52.138;5.444;2023-08-08T11:52:54;23.20;43.00
68719;DHT22;55696;52.138;5.444;2023-08-08T11:55:27;23.40;43.00
68719;DHT22;55696;52.138;5.444;2023-08-08T11:57:55;23.60;42.40
68719;DHT22;55696;52.138;5.444;2023-08-08T12:00:29;24.00;42.10
68719;DHT22;55696;52.138;5.444;2023-08-08T12:03:01;23.80;41.40
68719;DHT22;55696;52.138;5.444;2023-08-08T12:05:36;23.70;41.80
68719;DHT22;55696;52.138;5.444;2023-08-08T12:08:06;23.70;42.30
68719;DHT22;55696;52.138;5.444;2023-08-08T12:10:33;23.60;42.70
68719;DHT22;55696;52.138;5.444;2023-08-08T12:12:59;24.00;43.10
68719;DHT22;55696;52.138;5.444;2023-08-08T12:15:32;23.40;43.00
68719;DHT22;55696;52.138;5.444;2023-08-08T12:18:00;23.30;43.20
68719;DHT22;55696;52.138;5.444;2023-08-08T12:20:29;23.30;43.40
68719;DHT22;55696;52.138;5.444;2023-08-08T12:22:58;23.50;43.30
68719;DHT22;55696;52.138;5.444;2023-08-08T12:25:25;23.80;43.30
68719;DHT22;55696;52.138;5.444;2023-08-08T12:27:51;23.70;43.10
68719;DHT22;55696;52.138;5.444;2023-08-08T12:30:18;23.50;42.50
68719;DHT22;55696;52.138;5.444;2023-08-08T12:32:45;23.50;42.90
68719;DHT22;55696;52.138;5.444;2023-08-08T12:35:12;23.40;43.20
68719;DHT22;55696;52.138;5.444;2023-08-08T12:37:39;23.40;43.50
68719;DHT22;55696;52.138;5.444;2023-08-08T12:40:06;23.30;43.70
68719;DHT22;55696;52.138;5.444;2023-08-08T12:42:34;23.20;43.90
68719;DHT22;55696;52.138;5.444;2023-08-08T12:45:01;23.50;44.10
68719;DHT22;55696;52.138;5.444;2023-08-08T12:47:28;23.50;44.00
68719;DHT22;55696;52.138;5.444;2023-08-08T12:49:56;23.70;43.70
68719;DHT22;55696;52.138;5.444;2023-08-08T12:52:23;23.70;43.30
68719;DHT22;55696;52.138;5.444;2023-08-08T12:54:52;23.70;42.90
68719;DHT22;55696;52.138;5.444;2023-08-08T12:57:19;23.80;42.80
68719;DHT22;55696;52.138;5.444;2023-08-08T12:59:46;24.40;42.20
68719;DHT22;55696;52.138;5.444;2023-08-08T13:02:12;24.70;41.50
68719;DHT22;55696;52.138;5.444;2023-08-08T13:04:39;24.40;41.30
68719;DHT22;55696;52.138;5.444;2023-08-08T13:07:06;25.00;42.90
68719;DHT22;55696;52.138;5.444;2023-08-08T13:09:34;24.40;41.30
68719;DHT22;55696;52.138;5.444;2023-08-08T13:12:01;24.40;41.20
68719;DHT22;55696;52.138;5.444;2023-08-08T13:14:28;24.30;41.50
68719;DHT22;55696;52.138;5.444;2023-08-08T13:16:55;24.30;41.70
68719;DHT22;55696;52.138;5.444;2023-08-08T13:19:21;24.40;41.70
68719;DHT22;55696;52.138;5.444;2023-08-08T13:21:52;25.10;41.90
68719;DHT22;55696;52.138;5.444;2023-08-08T13:24:21;25.40;41.00
68719;DHT22;55696;52.138;5.444;2023-08-08T13:26:50;25.20;40.50
68719;DHT22;55696;52.138;5.444;2023-08-08T13:29:17;25.30;39.70
68719;DHT22;55696;52.138;5.444;2023-08-08T13:31:43;25.20;39.40
68719;DHT22;55696;52.138;5.444;2023-08-08T13:34:10;24.80;39.60
68719;DHT22;55696;52.138;5.444;2023-08-08T13:36:37;24.30;40.70
68719;DHT22;55696;52.138;5.444;2023-08-08T13:39:04;24.20;41.60
68719;DHT22;55696;52.138;5.444;2023-08-08T13:41:31;23.90;41.80
68719;DHT22;55696;52.138;5.444;2023-08-08T13:43:58;23.60;42.50
68719;DHT22;55696;52.138;5.444;2023-08-08T13:46:24;23.40;43.30
68719;DHT22;55696;52.138;5.444;2023-08-08T13:48:52;23.20;43.50
68719;DHT22;55696;52.138;5.444;2023-08-08T13:51:19;23.10;43.90
68719;DHT22;55696;52.138;5.444;2023-08-08T13:53:46;23.10;44.50
68719;DHT22;55696;52.138;5.444;2023-08-08T13:56:15;23.30;43.80
68719;DHT22;55696;52.138;5.444;2023-08-08T13:58:42;23.30;43.50
68719;DHT22;55696;52.138;5.444;2023-08-08T14:01:09;23.90;43.60
68719;DHT22;55696;52.138;5.444;2023-08-08T14:03:36;23.40;43.30
68719;DHT22;55696;52.138;5.444;2023-08-08T14:06:03;23.50;43.10
68719;DHT22;55696;52.138;5.444;2023-08-08T14:08:29;23.40;43.10
68719;DHT22;55696;52.138;5.444;2023-08-08T14:10:56;23.30;43.50
68719;DHT22;55696;52.138;5.444;2023-08-08T14:13:23;23.10;44.00
68719;DHT22;55696;52.138;5.444;2023-08-08T14:15:50;23.00;44.40
68719;DHT22;55696;52.138;5.444;2023-08-08T14:18:19;23.00;44.60
68719;DHT22;55696;52.138;5.444;2023-08-08T14:20:45;23.00;44.60
68719;DHT22;55696;52.138;5.444;2023-08-08T14:23:13;23.80;44.40
68719;DHT22;55696;52.138;5.444;2023-08-08T14:25:40;23.70;43.70
68719;DHT22;55696;52.138;5.444;2023-08-08T14:28:07;23.80;43.40
68719;DHT22;55696;52.138;5.444;2023-08-08T14:30:34;23.90;42.90
68719;DHT22;55696;52.138;5.444;2023-08-08T14:33:01;23.90;42.80
68719;DHT22;55696;52.138;5.444;2023-08-08T14:35:28;24.00;43.20
68719;DHT22;55696;52.138;5.444;2023-08-08T14:37:55;23.90;42.90
68719;DHT22;55696;52.138;5.444;2023-08-08T14:40:22;23.80;43.00
68719;DHT22;55696;52.138;5.444;2023-08-08T14:42:49;23.80;42.90
68719;DHT22;55696;52.138;5.444;2023-08-08T14:45:18;23.80;43.60
68719;DHT22;55696;52.138;5.444;2023-08-08T14:47:45;24.00;42.60
68719;DHT22;55696;52.138;5.444;2023-08-08T14:50:12;24.40;42.40
68719;DHT22;55696;52.138;5.444;2023-08-08T14:52:40;24.60;41.20
68719;DHT22;55696;52.138;5.444;2023-08-08T14:55:07;25.20;40.60
68719;DHT22;55696;52.138;5.444;2023-08-08T14:57:34;24.40;40.10
68719;DHT22;55696;52.138;5.444;2023-08-08T15:00:01;24.00;40.40
68719;DHT22;55696;52.138;5.444;2023-08-08T15:02:28;23.80;40.60
68719;DHT22;55696;52.138;5.444;2023-08-08T15:04:55;23.70;41.00
68719;DHT22;55696;52.138;5.444;2023-08-08T15:07:22;23.80;41.10
68719;DHT22;55696;52.138;5.444;2023-08-08T15:09:49;24.50;42.50
68719;DHT22;55696;52.138;5.444;2023-08-08T15:12:17;24.20;41.00
68719;DHT22;55696;52.138;5.444;2023-08-08T15:14:44;24.40;40.80
68719;DHT22;55696;52.138;5.444;2023-08-08T15:17:11;24.60;40.60
68719;DHT22;55696;52.138;5.444;2023-08-08T15:19:37;24.60;40.00
68719;DHT22;55696;52.138;5.444;2023-08-08T15:22:05;24.50;40.60
68719;DHT22;55696;52.138;5.444;2023-08-08T15:24:32;24.70;41.50
68719;DHT22;55696;52.138;5.444;2023-08-08T15:27:00;24.90;40.00
68719;DHT22;55696;52.138;5.444;2023-08-08T15:29:27;25.30;39.20
68719;DHT22;55696;52.138;5.444;2023-08-08T15:31:54;25.70;38.80
68719;DHT22;55696;52.138;5.444;2023-08-08T15:34:21;25.40;38.50
68719;DHT22;55696;52.138;5.444;2023-08-08T15:36:48;25.40;38.70
68719;DHT22;55696;52.138;5.444;2023-08-08T15:39:16;25.50;38.40
68719;DHT22;55696;52.138;5.444;2023-08-08T15:41:45;25.40;38.00